Time;durP1;ratioP1;P1;durP2;ratioP2;P2;SDS_P1;SDS_P2;PMS_P1;PMS_P2;Temp;Humidity;BMP_temperature;BMP_pressure;BME280_temperature;BME280_humidity;BME280_pressure;Samples;Min_cycle;Max_cycle;Signal;HPM_P1;HPM_P2
2022/06/23 00:02:28;;;;;;;5.50;3.80;;;;;;;13.97;70.80;97655.27;104754;1291;25252;-86
2022/06/23 00:05:02;;;;;;;5.90;3.70;;;;;;;13.99;69.68;97653.81;105074;1291;24486;-90
2022/06/23 00:07:38;;;;;;;7.00;3.60;;;;;;;13.98;69.94;97656.27;104986;1290;22573;-88
2022/06/23 00:10:22;;;;;;;7.00;3.50;;;;;;;14.10;69.60;97656.01;105013;1290;22775;-87
2022/06/23 00:13:17;;;;;;;;;;;;;;;;;;;;;
2022/06/23 00:15:45;;;;;;;5.30;3.20;;;;;;;14.64;71.05;97648.05;104975;1291;24714;-88
2022/06/23 00:18:22;;;;;;;5.20;3.50;;;;;;;14.72;69.00;97648.71;104794;1291;22573;-87
2022/06/23 00:20:59;;;;;;;5.80;3.40;;;;;;;14.62;68.96;97646.92;104913;1291;24342;-86
2022/06/23 00:23:33;;;;;;;8.40;3.70;;;;;;;14.53;68.84;97645.33;104654;1290;22929;-86
2022/06/23 00:26:03;;;;;;;5.40;3.60;;;;;;;14.52;68.56;97642.50;104697;1290;24241;-87
2022/06/23 00:28:46;;;;;;;5.20;3.60;;;;;;;14.56;68.42;97640.30;104519;1290;22746;-86
2022/06/23 00:31:38;;;;;;;6.50;3.50;;;;;;;14.69;68.67;97634.48;104643;1290;22623;-86
2022/06/23 00:34:23;;;;;;;8.60;3.70;;;;;;;14.95;68.86;97632.09;104686;1290;22722;-86
2022/06/23 00:37:01;;;;;;;7.20;3.80;;;;;;;15.14;67.85;97636.19;104576;1291;24281;-87
2022/06/23 00:39:35;;;;;;;6.80;3.40;;;;;;;15.06;67.54;97635.87;105223;1283;24408;-86
2022/06/23 00:42:23;;;;;;;5.60;3.40;;;;;;;14.86;67.60;97634.17;105320;1282;24444;-86
2022/06/23 00:44:56;;;;;;;5.30;3.60;;;;;;;14.66;67.57;97636.71;105323;1282;23553;-84
2022/06/23 00:47:38;;;;;;;7.00;3.60;;;;;;;14.52;67.79;97636.02;105215;1283;24429;-85
2022/06/23 00:50:18;;;;;;;5.50;3.40;;;;;;;14.45;67.85;97641.16;105356;1282;22759;-86
2022/06/23 00:52:55;;;;;;;5.50;3.40;;;;;;;14.44;67.75;97639.73;105417;1282;25480;-86
2022/06/23 00:55:35;;;;;;;4.90;3.00;;;;;;;14.42;67.78;97639.77;105463;1282;25199;-85
2022/06/23 00:58:21;;;;;;;5.50;3.70;;;;;;;14.36;67.90;97637.42;105427;1282;25641;-86
2022/06/23 01:00:54;;;;;;;4.60;3.30;;;;;;;14.43;68.77;97631.95;105319;1282;24444;-88
2022/06/23 01:03:37;;;;;;;6.30;4.10;;;;;;;14.59;68.26;97634.98;105416;1282;22668;-88
2022/06/23 01:06:38;;;;;;;6.20;3.90;;;;;;;14.84;69.38;97635.88;105369;1282;24426;-87
2022/06/23 01:09:12;;;;;;;5.20;3.60;;;;;;;15.32;69.57;97635.07;105393;1283;22739;-87
2022/06/23 01:11:54;;;;;;;5.30;3.00;;;;;;;15.64;68.75;97636.25;105430;1282;25419;-86
2022/06/23 01:14:49;;;;;;;4.90;3.20;;;;;;;15.94;67.96;97639.98;105335;1283;22652;-86
2022/06/23 01:17:24;;;;;;;5.30;3.60;;;;;;;16.29;67.73;97644.42;106909;1282;23387;-85
2022/06/23 01:20:01;;;;;;;5.80;3.40;;;;;;;16.52;67.19;97643.95;105667;1284;22581;-87
2022/06/23 01:22:53;;;;;;;4.90;3.30;;;;;;;16.66;66.38;97644.66;105330;1282;22627;-87
2022/06/23 01:25:52;;;;;;;4.60;3.20;;;;;;;16.81;65.98;97643.02;105345;1282;25472;-87
2022/06/23 01:28:27;;;;;;;5.60;3.20;;;;;;;16.76;65.86;97641.25;105370;1282;24011;-87
2022/06/23 01:31:04;;;;;;;5.60;3.10;;;;;;;16.77;65.53;97639.73;105356;1282;23979;-87
2022/06/23 01:33:44;;;;;;;6.20;3.00;;;;;;;16.53;64.76;97644.22;105375;1282;22558;-87
2022/06/23 01:36:19;;;;;;;5.20;3.40;;;;;;;16.07;65.17;97645.61;105372;1282;22599;-88
2022/06/23 01:38:53;;;;;;;6.20;3.30;;;;;;;15.77;66.08;97645.91;105380;1282;22746;-87
2022/06/23 01:41:35;;;;;;;6.10;3.80;;;;;;;15.94;67.33;97647.15;105405;1283;22728;-86
2022/06/23 01:44:26;;;;;;;5.30;3.50;;;;;;;16.14;66.03;97646.61;105286;1284;22548;-88
2022/06/23 01:46:57;;;;;;;5.60;3.10;;;;;;;16.14;65.78;97646.70;105419;1282;24439;-87
2022/06/23 01:49:39;;;;;;;5.10;3.50;;;;;;;16.12;65.06;97655.25;105412;1282;23247;-87
2022/06/23 01:52:19;;;;;;;6.90;3.40;;;;;;;15.63;64.37;97652.39;105372;1282;22560;-89
2022/06/23 01:54:53;;;;;;;5.50;3.40;;;;;;;14.99;64.53;97657.48;105161;1283;278993;-88
2022/06/23 01:57:37;;;;;;;5.70;3.10;;;;;;;14.45;65.02;97660.48;105358;1282;22762;-88
2022/06/23 02:00:22;;;;;;;6.30;3.60;;;;;;;14.13;65.49;97665.80;105365;1283;25439;-87
2022/06/23 02:02:53;;;;;;;5.00;3.40;;;;;;;14.01;66.02;97666.13;105357;1282;23952;-87
2022/06/23 02:05:39;;;;;;;4.30;3.50;;;;;;;13.96;65.85;97671.89;105318;1283;22559;-86
2022/06/23 02:08:27;;;;;;;5.00;3.20;;;;;;;13.83;66.80;97674.73;105343;1283;25411;-87
2022/06/23 02:11:19;;;;;;;6.60;3.50;;;;;;;14.07;68.65;97677.95;105344;1284;22669;-86
2022/06/23 02:14:08;;;;;;;6.70;3.70;;;;;;;14.45;69.46;97682.23;105393;1283;25666;-87
2022/06/23 02:16:51;;;;;;;7.80;4.20;;;;;;;14.54;66.31;97684.03;105398;1282;22661;-88
2022/06/23 02:19:29;;;;;;;7.60;3.90;;;;;;;14.45;66.25;97686.27;105388;1283;25611;-88
2022/06/23 02:22:00;;;;;;;6.70;4.30;;;;;;;14.39;67.26;97693.61;105349;1283;22612;-88
2022/06/23 02:24:53;;;;;;;8.00;5.00;;;;;;;14.67;68.67;97696.65;105377;1281;22588;-89
2022/06/23 02:27:46;;;;;;;4.80;3.50;;;;;;;14.89;66.85;97695.28;105327;1284;22945;-89
2022/06/23 02:30:31;;;;;;;6.40;4.20;;;;;;;14.64;66.16;97695.84;105444;1282;24010;-87
2022/06/23 02:33:25;;;;;;;6.40;3.80;;;;;;;14.29;66.01;97701.52;105774;1282;24218;-90
2022/06/23 02:36:07;;;;;;;6.20;4.30;;;;;;;13.89;67.56;97700.25;105315;1284;25354;-88
2022/06/23 02:39:03;;;;;;;7.40;4.80;;;;;;;14.18;69.87;97698.84;105344;1283;22590;-88
2022/06/23 02:41:41;;;;;;;5.30;4.30;;;;;;;14.61;67.86;97698.95;105308;1283;22574;-90
2022/06/23 02:44:29;;;;;;;8.10;4.30;;;;;;;14.43;66.90;97704.23;105146;1284;22563;-88
2022/06/23 02:47:50;;;;;;;6.90;5.20;;;;;;;14.12;67.21;97702.86;104666;1290;22542;-89
2022/06/23 02:50:29;;;;;;;6.90;5.00;;;;;;;13.71;68.01;97705.44;104218;1295;22580;-88
2022/06/23 02:53:21;;;;;;;7.80;5.20;;;;;;;13.41;68.64;97710.30;104308;1295;22727;-88
2022/06/23 02:56:08;;;;;;;9.00;5.20;;;;;;;13.16;68.99;97714.86;103969;1299;22674;-87
2022/06/23 02:59:00;;;;;;;8.10;5.80;;;;;;;13.00;69.47;97716.67;104111;1294;24717;-86
2022/06/23 03:01:56;;;;;;;6.00;5.00;;;;;;;12.78;69.17;97719.56;104276;1294;22557;-88
2022/06/23 03:04:32;;;;;;;6.40;4.60;;;;;;;12.79;69.93;97720.13;104213;1297;25224;-87
2022/06/23 03:07:11;;;;;;;11.20;5.00;;;;;;;13.03;70.69;97718.45;104030;1297;22564;-87
2022/06/23 03:09:47;;;;;;;7.20;4.40;;;;;;;13.03;69.49;97715.81;104179;1295;24606;-85
2022/06/23 03:12:29;;;;;;;6.90;4.60;;;;;;;12.89;70.22;97718.58;104249;1295;22577;-86
2022/06/23 03:15:08;;;;;;;6.50;4.30;;;;;;;12.82;70.84;97722.59;104020;1294;22553;-86
2022/06/23 03:17:58;;;;;;;5.50;4.10;;;;;;;12.63;71.04;97727.23;104012;1298;22579;-86
2022/06/23 03:20:44;;;;;;;5.80;3.90;;;;;;;12.58;71.08;97734.20;104010;1297;22753;-86
2022/06/23 03:23:37;;;;;;;6.50;4.30;;;;;;;12.58;71.03;97740.12;104019;1297;22691;-86
2022/06/23 03:26:23;;;;;;;5.80;4.10;;;;;;;12.51;71.77;97742.48;105037;1284;25251;-87
2022/06/23 03:29:04;;;;;;;7.40;3.90;;;;;;;12.42;71.83;97746.70;105259;1284;22564;-87
2022/06/23 03:32:01;;;;;;;9.80;4.30;;;;;;;12.47;71.99;97745.17;105327;1284;24371;-88
2022/06/23 03:34:42;;;;;;;5.90;4.40;;;;;;;12.61;72.06;97748.45;105735;1284;26674;-87
2022/06/23 03:37:18;;;;;;;5.70;3.80;;;;;;;12.83;71.88;97749.15;106517;1284;24081;-87
2022/06/23 03:43:21;;;;;;;5.60;4.20;;;;;;;12.92;71.89;97750.88;105383;1284;24003;-88
2022/06/23 03:45:54;;;;;;;7.50;4.00;;;;;;;12.90;72.16;97750.08;105421;1284;22570;-87
2022/06/23 03:48:28;;;;;;;5.80;3.70;;;;;;;12.85;72.26;97738.13;105432;1283;23137;-87
2022/06/23 03:51:05;;;;;;;7.20;4.00;;;;;;;13.09;72.49;97751.02;105435;1284;22631;-88
2022/06/23 03:53:51;;;;;;;8.30;4.10;;;;;;;13.25;72.47;97756.81;105428;1284;25292;-88
2022/06/23 03:56:23;;;;;;;7.30;3.90;;;;;;;13.44;72.36;97756.96;105455;1283;22888;-88
2022/06/23 03:59:43;;;;;;;6.00;4.80;;;;;;;13.75;72.60;97755.35;105434;1284;22559;-88
2022/06/23 04:02:17;;;;;;;8.50;5.00;;;;;;;14.19;73.36;97757.33;105397;1284;25353;-88
2022/06/23 04:05:00;;;;;;;5.70;5.00;;;;;;;14.74;72.55;97759.42;105428;1284;25661;-87
2022/06/23 04:07:48;;;;;;;8.30;3.70;;;;;;;15.23;72.00;97761.48;105380;1284;22560;-87
2022/06/23 04:10:37;;;;;;;8.40;3.70;;;;;;;15.72;71.15;97758.88;105440;1282;25658;-87
2022/06/23 04:13:24;;;;;;;4.70;3.60;;;;;;;16.22;69.95;97760.23;105395;1283;22703;-88
2022/06/23 04:15:55;;;;;;;5.60;3.80;;;;;;;16.55;69.48;97766.50;105370;1282;22687;-88
2022/06/23 04:18:27;;;;;;;7.50;4.10;;;;;;;16.66;69.11;97767.53;105458;1284;22910;-88
2022/06/23 04:20:59;;;;;;;4.50;3.60;;;;;;;16.84;68.69;97766.72;105406;1283;24220;-88
2022/06/23 04:23:36;;;;;;;5.10;3.50;;;;;;;17.13;68.29;97770.67;105464;1283;22734;-88
2022/06/23 04:26:14;;;;;;;7.50;3.70;;;;;;;17.23;68.27;97774.48;105450;1284;24298;-87
2022/06/23 04:28:57;;;;;;;6.00;3.40;;;;;;;17.17;68.25;97777.36;105416;1283;22624;-88
2022/06/23 04:31:30;;;;;;;5.10;3.50;;;;;;;17.12;68.01;97782.70;105448;1283;22767;-85
2022/06/23 04:34:00;;;;;;;5.70;3.70;;;;;;;17.10;68.04;97786.39;105313;1282;22541;-86
2022/06/23 04:36:31;;;;;;;5.00;3.40;;;;;;;17.04;67.54;97788.55;105377;1284;22704;-89
2022/06/23 04:39:19;;;;;;;6.00;3.40;;;;;;;17.00;67.62;97787.74;105421;1283;26701;-86
2022/06/23 04:42:05;;;;;;;7.60;3.50;;;;;;;17.15;67.68;97792.46;105433;1283;22575;-85
2022/06/23 04:44:37;;;;;;;4.00;2.80;;;;;;;17.37;67.27;97795.11;105446;1283;22932;-87
2022/06/23 04:47:33;;;;;;;4.80;2.90;;;;;;;17.69;66.66;97791.58;106778;1283;22478;-87
2022/06/23 04:50:54;;;;;;;7.90;3.40;;;;;;;17.94;65.78;97788.28;105559;1283;22563;-87
2022/06/23 04:53:55;;;;;;;6.30;3.60;;;;;;;18.28;65.42;97790.63;105118;1284;22572;-87
2022/06/23 04:56:27;;;;;;;8.00;4.60;;;;;;;18.52;65.09;97791.45;105432;1282;24418;-87
2022/06/23 04:59:02;;;;;;;6.50;4.00;;;;;;;18.67;64.75;97794.29;105587;1283;22532;-87
2022/06/23 05:01:35;;;;;;;;;;;;;;;18.82;64.28;97798.87;105840;1283;22656;-87
2022/06/23 05:04:19;;;;;;;6.50;4.20;;;;;;;18.97;63.85;97803.13;105465;1283;22597;-87
2022/06/23 05:06:52;;;;;;;7.30;3.90;;;;;;;19.11;63.93;97806.14;105356;1282;22563;-87
2022/06/23 05:09:35;;;;;;;7.50;3.90;;;;;;;19.24;63.31;97808.14;105274;1284;24291;-87
2022/06/23 05:12:27;;;;;;;6.60;3.70;;;;;;;19.37;63.41;97809.44;105548;1283;22570;-89
2022/06/23 05:15:21;;;;;;;8.40;3.90;;;;;;;19.49;63.23;97809.77;105547;1282;22564;-87
2022/06/23 05:17:54;;;;;;;6.00;3.80;;;;;;;19.49;63.08;97812.34;105457;1282;22779;-87
2022/06/23 05:20:41;;;;;;;7.70;3.20;;;;;;;19.54;62.91;97812.67;105512;1283;22603;-89
2022/06/23 05:23:18;;;;;;;7.00;2.90;;;;;;;19.62;62.93;97819.39;105581;1282;24799;-87
2022/06/23 05:25:53;;;;;;;4.90;3.20;;;;;;;19.67;62.71;97820.39;105554;1282;25368;-90
2022/06/23 05:28:22;;;;;;;8.40;3.20;;;;;;;19.78;62.18;97824.89;105388;1284;22863;-87
2022/06/23 05:30:56;;;;;;;5.30;3.20;;;;;;;19.93;61.95;97825.02;105217;1283;22726;-87
2022/06/23 05:33:30;;;;;;;5.30;3.30;;;;;;;19.96;61.27;97826.63;105425;1283;22737;-87
2022/06/23 05:36:03;;;;;;;4.40;3.00;;;;;;;20.04;60.72;97825.69;105320;1282;24114;-87
2022/06/23 05:38:48;;;;;;;4.70;2.60;;;;;;;20.13;60.67;97831.00;105440;1282;25360;-86
2022/06/23 05:41:23;;;;;;;6.60;2.60;;;;;;;20.12;60.40;97837.88;105400;1282;22620;-86
2022/06/23 05:43:56;;;;;;;4.80;2.40;;;;;;;20.16;59.84;97840.38;105434;1282;25465;-87
2022/06/23 05:46:28;;;;;;;4.30;2.40;;;;;;;20.21;58.71;97839.60;105373;1283;24279;-87
2022/06/23 05:49:00;;;;;;;5.20;2.70;;;;;;;20.33;59.17;97841.84;105402;1282;22562;-87
2022/06/23 05:51:46;;;;;;;7.40;2.80;;;;;;;20.41;58.63;97840.17;105458;1282;22884;-88
2022/06/23 05:54:34;;;;;;;6.40;2.50;;;;;;;20.56;58.36;97839.67;105485;1282;25428;-87
2022/06/23 05:57:25;;;;;;;4.80;2.70;;;;;;;20.52;57.54;97846.23;104979;1283;22582;-87
2022/06/23 05:59:59;;;;;;;5.20;2.70;;;;;;;20.46;57.47;97849.02;105393;1282;22571;-87
2022/06/23 06:02:39;;;;;;;4.20;2.20;;;;;;;20.44;56.24;97849.38;105622;1282;24232;-84
2022/06/23 06:05:22;;;;;;;5.50;2.60;;;;;;;20.48;56.47;97851.87;105188;1284;22628;-88
2022/06/23 06:07:51;;;;;;;6.30;2.90;;;;;;;20.53;56.30;97848.15;105212;1285;22559;-88
2022/06/23 06:10:32;;;;;;;4.00;2.40;;;;;;;20.62;55.39;97858.31;105455;1283;22692;-88
2022/06/23 06:13:03;;;;;;;4.80;3.30;;;;;;;20.76;55.54;97864.40;105386;1283;22658;-89
2022/06/23 06:15:46;;;;;;;3.60;2.40;;;;;;;20.96;54.75;97861.90;105385;1282;22895;-86
2022/06/23 06:18:28;;;;;;;5.20;2.40;;;;;;;21.06;54.51;97864.73;105048;1283;24435;-87
2022/06/23 06:20:59;;;;;;;3.40;2.20;;;;;;;21.11;54.77;97866.13;105322;1284;25314;-88
2022/06/23 06:23:53;;;;;;;7.20;2.70;;;;;;;21.13;54.11;97870.07;105328;1282;22631;-88
2022/06/23 06:26:32;;;;;;;4.30;2.60;;;;;;;21.06;53.86;97866.76;105350;1282;23250;-88
2022/06/23 06:29:12;;;;;;;5.30;2.60;;;;;;;20.98;53.54;97868.75;105431;1283;22573;-87
2022/06/23 06:31:46;;;;;;;8.50;3.30;;;;;;;21.03;53.23;97868.49;105200;1282;22560;-89
2022/06/23 06:34:26;;;;;;;4.60;3.30;;;;;;;21.11;52.29;97872.54;105490;1282;25204;-88
2022/06/23 06:36:54;;;;;;;5.00;2.50;;;;;;;21.05;52.30;97875.66;105612;1283;22873;-88
2022/06/23 06:39:34;;;;;;;7.70;3.60;;;;;;;21.16;52.28;97878.71;105421;1282;25381;-88
2022/06/23 06:42:13;;;;;;;8.30;3.30;;;;;;;21.27;52.10;97877.94;105400;1282;24352;-87
2022/06/23 06:44:47;;;;;;;6.20;2.60;;;;;;;21.28;51.67;97881.02;105433;1282;22650;-86
2022/06/23 06:47:18;;;;;;;5.40;2.80;;;;;;;21.33;51.25;97876.31;105382;1282;22571;-87
2022/06/23 06:49:46;;;;;;;6.90;3.20;;;;;;;21.37;51.24;97875.35;105411;1282;22997;-87
2022/06/23 06:52:16;;;;;;;5.80;3.60;;;;;;;21.40;49.65;97881.29;105329;1283;22626;-87
2022/06/23 06:54:56;;;;;;;5.70;3.10;;;;;;;21.34;49.89;97878.20;105387;1282;22633;-88
2022/06/23 06:57:42;;;;;;;6.20;3.50;;;;;;;21.39;49.57;97882.35;105320;1283;22623;-87
2022/06/23 07:00:14;;;;;;;6.00;2.90;;;;;;;21.36;49.40;97879.41;105399;1282;24463;-87
2022/06/23 07:02:48;;;;;;;9.10;3.40;;;;;;;21.33;48.72;97881.86;105447;1282;22711;-87
2022/06/23 07:05:49;;;;;;;8.20;3.20;;;;;;;21.36;48.60;97879.05;105863;1282;24215;-87
2022/06/23 07:08:24;;;;;;;4.10;2.60;;;;;;;21.44;48.41;97885.80;108227;1282;22714;-88
2022/06/23 07:11:09;;;;;;;4.00;2.90;;;;;;;21.52;48.55;97888.33;105530;1282;22574;-88
2022/06/23 07:13:46;;;;;;;6.10;3.10;;;;;;;21.66;47.98;97896.75;105484;1282;22606;-88
2022/06/23 07:16:43;;;;;;;7.80;3.20;;;;;;;21.65;46.79;97900.65;105393;1282;24235;-87
2022/06/23 07:19:18;;;;;;;5.00;3.30;;;;;;;21.46;47.22;97897.19;105501;1283;22737;-86
2022/06/23 07:21:56;;;;;;;7.50;3.20;;;;;;;21.52;47.87;97891.31;105470;1282;25529;-87
2022/06/23 07:24:44;;;;;;;5.50;3.10;;;;;;;21.67;47.18;97893.55;105308;1285;25381;-87
2022/06/23 07:27:22;;;;;;;5.80;2.80;;;;;;;21.81;47.41;97896.62;105321;1282;22703;-87
2022/06/23 07:34:53;;;;;;;6.80;3.30;;;;;;;22.08;46.28;97901.09;105402;1282;24310;-89
2022/06/23 07:37:34;;;;;;;8.00;3.10;;;;;;;22.16;46.01;97907.23;105611;1282;25646;-90
2022/06/23 07:40:06;;;;;;;7.10;3.20;;;;;;;22.25;45.99;97906.73;105367;1283;23289;-87
2022/06/23 07:42:41;;;;;;;7.60;3.40;;;;;;;22.32;46.29;97911.10;105415;1282;23072;-86
2022/06/23 07:45:19;;;;;;;8.00;3.30;;;;;;;22.45;46.35;97915.02;105341;1282;22560;-86
2022/06/23 07:47:47;;;;;;;7.80;4.00;;;;;;;22.67;45.46;97917.81;105416;1284;22731;-87
2022/06/23 07:50:15;;;;;;;7.60;3.80;;;;;;;22.69;44.78;97919.16;105710;1283;22576;-87
2022/06/23 07:52:44;;;;;;;7.80;3.30;;;;;;;22.78;45.16;97919.40;105802;1282;22581;-87
2022/06/23 07:55:22;;;;;;;5.80;3.40;;;;;;;22.88;45.08;97923.82;105997;1282;24270;-90
2022/06/23 07:58:14;;;;;;;8.70;3.10;;;;;;;23.15;45.05;97923.50;106033;1282;22597;-87
2022/06/23 08:00:44;;;;;;;4.80;2.50;;;;;;;23.35;45.33;97919.48;105940;1282;25291;-90
2022/06/23 08:03:18;;;;;;;5.70;2.60;;;;;;;23.45;45.19;97922.77;106028;1282;23180;-88
2022/06/23 08:05:49;;;;;;;;;;;;;;;23.47;45.41;97920.58;106109;1282;23287;-87
2022/06/23 08:08:21;;;;;;;3.30;2.10;;;;;;;23.41;45.08;97924.77;106085;1283;22563;-88
2022/06/23 08:12:53;;;;;;;6.10;2.90;;;;;;;23.25;44.12;97923.57;105885;1285;22563;-88
2022/06/23 08:13:45;;;;;;;6.50;2.70;;;;;;;22.91;42.48;97929.89;105712;1285;23171;-88
2022/06/23 08:19:31;;;;;;;6.50;2.60;;;;;;;22.77;42.28;97928.20;106821;1284;22579;-86
2022/06/23 08:22:10;;;;;;;5.70;2.90;;;;;;;22.59;41.25;97923.94;105987;1284;24223;-85
2022/06/23 08:24:40;;;;;;;5.10;2.80;;;;;;;22.38;41.95;97924.12;105759;1285;22572;-88
2022/06/23 08:27:18;;;;;;;6.30;2.80;;;;;;;22.44;42.29;97927.63;105916;1284;22641;-88
2022/06/23 08:30:39;;;;;;;8.30;2.50;;;;;;;22.70;42.35;97929.92;105790;1285;25406;-89
2022/06/23 08:33:09;;;;;;;5.00;2.60;;;;;;;23.09;41.78;97932.73;105944;1284;24285;-90
2022/06/23 08:35:44;;;;;;;5.00;2.60;;;;;;;23.26;41.60;97931.52;106054;1284;22569;-89
2022/06/23 08:38:25;;;;;;;7.30;2.90;;;;;;;23.50;41.37;97934.66;105769;1284;22583;-85
2022/06/23 08:41:08;;;;;;;5.90;3.20;;;;;;;23.68;40.60;97933.44;105929;1284;24228;-86
2022/06/23 08:43:46;;;;;;;3.80;2.30;;;;;;;23.84;40.91;97930.55;105997;1284;22820;-85
2022/06/23 08:46:19;;;;;;;5.60;2.70;;;;;;;23.91;39.33;97931.85;105778;1285;22668;-86
2022/06/23 08:48:59;;;;;;;;;;;;;;;23.80;38.65;97930.54;105996;1284;25359;-86
2022/06/23 08:51:51;;;;;;;8.10;3.00;;;;;;;23.87;38.82;97937.25;106142;1284;22573;-87
2022/06/23 08:54:45;;;;;;;5.90;2.70;;;;;;;23.95;38.98;97931.95;105785;1284;25601;-86
2022/06/23 08:57:16;;;;;;;8.10;2.30;;;;;;;24.20;38.73;97940.38;105841;1285;25252;-88
2022/06/23 08:59:55;;;;;;;4.00;2.10;;;;;;;24.37;38.14;97937.52;105906;1284;22965;-88
2022/06/23 09:02:41;;;;;;;5.70;2.60;;;;;;;24.48;37.57;97940.17;105943;1284;24343;-87
2022/06/23 09:05:44;;;;;;;3.70;2.10;;;;;;;24.59;37.92;97939.33;105542;1284;22555;-91
2022/06/23 09:08:40;;;;;;;4.60;2.30;;;;;;;24.75;38.13;97936.27;106305;1285;24105;-93
2022/06/23 09:11:41;;;;;;;5.00;2.10;;;;;;;24.97;38.13;97934.73;105758;1284;25369;-89
2022/06/23 09:14:36;;;;;;;4.20;2.40;;;;;;;25.18;38.59;97937.50;105657;1284;22900;-89
2022/06/23 09:17:41;;;;;;;5.70;2.40;;;;;;;25.45;37.86;97929.77;105660;1284;25317;-88
2022/06/23 09:20:28;;;;;;;2.80;2.00;;;;;;;25.35;35.79;97931.66;105820;1284;22637;-89
2022/06/23 09:23:08;;;;;;;4.70;2.40;;;;;;;25.42;36.75;97930.09;106413;1284;25851;-88
2022/06/23 09:25:36;;;;;;;3.80;2.10;;;;;;;25.65;37.55;97934.98;108558;1284;22709;-87
2022/06/23 09:28:15;;;;;;;2.90;2.00;;;;;;;25.70;37.00;97935.60;106578;1284;22671;-89
2022/06/23 09:31:05;;;;;;;6.10;2.00;;;;;;;25.60;36.61;97939.34;106246;1284;22631;-90
2022/06/23 09:33:45;;;;;;;5.00;1.90;;;;;;;25.54;36.87;97938.95;105881;1284;25353;-90
2022/06/23 09:36:52;;;;;;;3.70;1.80;;;;;;;25.42;36.90;97940.01;105700;1284;22554;-92
2022/06/23 09:39:38;;;;;;;6.20;2.20;;;;;;;25.21;37.11;97939.39;105082;1291;22611;-88
2022/06/23 09:42:52;;;;;;;3.50;2.00;;;;;;;25.22;37.29;97942.48;104930;1291;22841;-90
2022/06/23 09:45:26;;;;;;;6.00;2.70;;;;;;;25.35;37.36;97937.57;104825;1291;22582;-89
2022/06/23 09:48:00;;;;;;;;;;;;;;;25.50;37.41;97937.47;105166;1291;22550;-89
2022/06/23 09:51:03;;;;;;;5.00;2.20;;;;;;;25.43;36.62;97936.45;105167;1291;23988;-92
2022/06/23 09:53:39;;;;;;;4.50;2.40;;;;;;;25.72;37.20;97937.10;105217;1291;22616;-92
2022/06/23 09:56:28;;;;;;;2.60;1.80;;;;;;;25.86;36.60;97938.59;105179;1291;22811;-90
2022/06/23 09:59:16;;;;;;;4.40;2.20;;;;;;;25.98;36.64;97938.78;105148;1291;26720;-91
2022/06/23 10:01:50;;;;;;;3.60;2.10;;;;;;;26.15;36.60;97940.30;105250;1291;23964;-91
2022/06/23 10:04:44;;;;;;;3.50;1.90;;;;;;;26.32;36.39;97938.31;105418;1290;24000;-91
2022/06/23 10:07:21;;;;;;;4.70;2.10;;;;;;;26.54;36.53;97938.29;107401;1290;22626;-90
2022/06/23 10:10:06;;;;;;;4.10;2.00;;;;;;;26.91;36.68;97937.65;107343;1290;22550;-92
2022/06/23 10:16:08;;;;;;;8.70;2.10;;;;;;;27.15;35.29;97938.66;108533;1271;22620;-88
2022/06/23 10:18:48;;;;;;;3.10;1.90;;;;;;;27.12;34.99;97940.80;107039;1284;24384;-88
2022/06/23 10:21:22;;;;;;;5.30;1.80;;;;;;;27.37;35.54;97938.80;106457;1282;22582;-90
2022/06/23 10:24:33;;;;;;;3.40;1.90;;;;;;;27.53;33.31;97941.02;106559;1282;24313;-88
2022/06/23 10:27:17;;;;;;;3.60;2.00;;;;;;;27.14;32.81;97940.48;105864;1284;25740;-87
2022/06/23 10:30:04;;;;;;;4.90;1.90;;;;;;;27.03;33.86;97935.66;106688;1282;22575;-90
2022/06/23 10:33:07;;;;;;;3.80;2.00;;;;;;;27.30;34.19;97934.35;107424;1282;22617;-87
2022/06/23 10:36:00;;;;;;;7.00;1.80;;;;;;;27.63;34.19;97940.36;109101;1282;22668;-88
2022/06/23 10:38:49;;;;;;;7.70;2.10;;;;;;;27.79;34.22;97936.97;108118;1282;23962;-88
2022/06/23 10:41:30;;;;;;;4.30;1.90;;;;;;;27.56;33.33;97939.89;106835;1280;22697;-93
2022/06/23 10:44:13;;;;;;;4.70;2.00;;;;;;;27.31;34.11;97940.75;107964;1282;22570;-90
2022/06/23 10:46:50;;;;;;;4.90;2.80;;;;;;;27.47;34.28;97942.02;108519;1282;22788;-87
2022/06/23 10:49:45;;;;;;;3.10;2.40;;;;;;;27.76;34.09;97936.99;108798;1282;22570;-91
2022/06/23 10:52:41;;;;;;;4.30;2.00;;;;;;;27.94;33.50;97943.60;108265;1282;22572;-92
2022/06/23 10:55:36;;;;;;;5.00;2.30;;;;;;;27.89;33.59;97939.86;108534;1282;22491;-94
2022/06/23 10:58:22;;;;;;;4.10;1.90;;;;;;;27.38;32.10;97935.45;108546;1282;25352;-91
2022/06/23 11:01:00;;;;;;;3.50;2.20;;;;;;;26.96;32.99;97939.52;108648;1282;22552;-89
2022/06/23 11:04:05;;;;;;;5.70;2.50;;;;;;;26.85;32.62;97938.80;108774;1282;22572;-86
2022/06/23 11:06:36;;;;;;;4.80;2.20;;;;;;;26.83;32.98;97935.03;107376;1282;22579;-90
2022/06/23 11:09:25;;;;;;;6.20;2.00;;;;;;;27.06;33.22;97931.70;107116;1282;24902;-92
2022/06/23 11:12:04;;;;;;;3.80;1.80;;;;;;;27.35;32.80;97932.89;107293;1282;23090;-92
2022/06/23 11:15:01;;;;;;;5.80;2.20;;;;;;;27.11;32.03;97930.73;107295;1282;22559;-92
2022/06/23 11:18:17;;;;;;;3.90;2.00;;;;;;;27.03;32.47;97934.40;107503;1282;22698;-92
2022/06/23 11:21:05;;;;;;;3.50;2.00;;;;;;;27.05;31.60;97929.48;106547;1288;24343;-89
2022/06/23 11:23:39;;;;;;;2.80;2.10;;;;;;;26.80;31.53;97926.29;106423;1288;22583;-91
2022/06/23 11:26:40;;;;;;;3.50;2.00;;;;;;;26.80;31.48;97927.63;106931;1287;22729;-89
2022/06/23 11:29:23;;;;;;;4.50;2.10;;;;;;;26.80;31.74;97926.45;106994;1288;22626;-92
2022/06/23 11:32:22;;;;;;;4.00;2.10;;;;;;;26.83;32.03;97919.72;107301;1288;22608;-91
2022/06/23 11:35:22;;;;;;;3.50;2.00;;;;;;;26.94;31.30;97919.78;106284;1290;22614;-91
2022/06/23 11:38:02;;;;;;;4.40;2.00;;;;;;;26.73;31.95;97918.34;107292;1290;22578;-85
2022/06/23 11:40:56;;;;;;;2.40;1.60;;;;;;;26.43;31.64;97917.11;105216;1288;22557;-86
2022/06/23 11:43:49;;;;;;;3.40;1.90;;;;;;;26.40;32.10;97911.28;106333;1288;22611;-83
2022/06/23 11:46:39;;;;;;;3.30;1.90;;;;;;;26.76;32.68;97913.05;107033;1288;22869;-88
2022/06/23 11:49:32;;;;;;;3.70;2.10;;;;;;;27.17;32.48;97909.73;105572;1288;25957;-87
2022/06/23 11:52:27;;;;;;;4.40;2.10;;;;;;;27.36;32.17;97910.43;105030;1288;22560;-89
2022/06/23 11:55:07;;;;;;;4.50;1.90;;;;;;;27.44;32.41;97912.55;105137;1288;23699;-87
2022/06/23 11:57:45;;;;;;;4.20;2.30;;;;;;;27.57;31.93;97913.67;105731;1282;23957;-91
2022/06/23 12:00:18;;;;;;;4.50;1.90;;;;;;;27.31;31.44;97913.40;106748;1282;23369;-89
2022/06/23 12:03:33;;;;;;;5.10;2.30;;;;;;;27.24;31.64;97911.25;105876;1282;22563;-90
2022/06/23 12:06:13;;;;;;;4.40;2.50;;;;;;;27.26;30.88;97912.81;105881;1282;25843;-88
2022/06/23 12:08:47;;;;;;;3.10;2.10;;;;;;;27.30;31.27;97911.20;106014;1282;22560;-88
2022/06/23 12:11:19;;;;;;;4.70;2.10;;;;;;;27.39;30.82;97909.21;105825;1282;22541;-90
2022/06/23 12:13:48;;;;;;;4.40;2.10;;;;;;;27.63;31.54;97904.69;105785;1282;22495;-88
2022/06/23 12:16:17;;;;;;;4.10;2.20;;;;;;;28.01;31.57;97903.95;106538;1285;22866;-89
2022/06/23 12:18:52;;;;;;;3.80;2.30;;;;;;;28.33;31.47;97901.64;106085;1284;24324;-90
2022/06/23 12:21:30;;;;;;;3.30;2.00;;;;;;;28.65;31.30;97899.92;106738;1284;22567;-89
2022/06/23 12:25:09;;;;;;;4.90;2.10;;;;;;;28.86;31.04;97897.45;106088;1284;22511;-91
2022/06/23 12:28:36;;;;;;;5.40;1.90;;;;;;;28.74;31.01;97898.52;106510;1288;22688;-90
2022/06/23 12:31:16;;;;;;;4.00;2.20;;;;;;;28.95;31.37;97899.70;105721;1288;22582;-90
2022/06/23 12:33:50;;;;;;;;;;;;;;;29.37;31.24;97899.55;106633;1288;23301;-92
2022/06/23 12:36:37;;;;;;;7.50;3.30;;;;;;;29.62;30.94;97895.36;107137;1288;23012;-90
2022/06/23 12:39:12;;;;;;;3.80;2.10;;;;;;;29.68;29.54;97895.48;107434;1288;22564;-90
2022/06/23 12:41:50;;;;;;;2.80;1.90;;;;;;;29.50;29.43;97895.02;107843;1288;23824;-90
2022/06/23 12:44:27;;;;;;;3.70;1.70;;;;;;;29.38;28.67;97891.42;108219;1275;22579;-91
2022/06/23 12:47:12;;;;;;;3.40;2.10;;;;;;;29.41;29.77;97891.06;106782;1284;22565;-91
2022/06/23 12:54:12;;;;;;;3.90;2.00;;;;;;;30.08;27.90;97891.27;107591;1284;22662;-90
2022/06/23 12:57:16;;;;;;;2.80;1.80;;;;;;;29.87;28.20;97890.05;108710;1271;22786;-90
2022/06/23 13:00:08;;;;;;;6.10;1.90;;;;;;;30.20;29.48;97886.20;107625;1286;23492;-90